createdAt,value
2023-10-10T00:01:48.326Z,4.36
2023-10-10T00:04:20.692Z,4.29
2023-10-10T00:06:53.206Z,4.21
2023-10-10T00:09:27.618Z,4.13
2023-10-10T00:11:59.473Z,4.08
2023-10-10T00:14:31.260Z,4.26
2023-10-10T00:17:03.153Z,4.34
2023-10-10T00:19:45.329Z,4.40
2023-10-10T00:22:19.019Z,4.21
2023-10-10T00:24:50.782Z,4.08
2023-10-10T00:27:25.045Z,3.94
2023-10-10T00:29:56.862Z,3.90
2023-10-10T00:32:30.728Z,3.78
2023-10-10T00:35:03.941Z,3.69
2023-10-10T00:37:36.434Z,3.57
2023-10-10T00:40:12.160Z,3.44
2023-10-10T00:42:43.981Z,3.20
2023-10-10T00:45:16.022Z,3.16
2023-10-10T00:47:49.210Z,3.25
2023-10-10T00:50:26.211Z,2.96
2023-10-10T00:52:58.334Z,3.02
2023-10-10T00:55:34.906Z,3.07
2023-10-10T00:58:09.147Z,2.79
2023-10-10T01:00:47.669Z,2.98
2023-10-10T01:03:22.968Z,2.95
2023-10-10T01:05:55.503Z,2.88
2023-10-10T01:08:32.734Z,2.79
2023-10-10T01:11:06.769Z,2.66
2023-10-10T01:13:41.515Z,2.75
2023-10-10T01:16:13.486Z,2.56
2023-10-10T01:18:58.884Z,2.60
2023-10-10T01:21:32.374Z,2.56
2023-10-10T01:24:13.171Z,2.48
2023-10-10T01:26:48.837Z,2.42
2023-10-10T01:29:28.574Z,2.22
2023-10-10T01:32:00.726Z,2.35
2023-10-10T01:34:32.700Z,2.12
2023-10-10T01:37:09.174Z,2.11
2023-10-10T01:40:19.260Z,2.32
2023-10-10T01:42:55.710Z,2.20
2023-10-10T01:45:31.278Z,2.23
2023-10-10T01:48:09.906Z,2.32
2023-10-10T01:50:42.244Z,2.15
2023-10-10T01:53:14.066Z,2.13
2023-10-10T01:55:48.943Z,2.10
2023-10-10T01:58:21.546Z,2.19
2023-10-10T02:00:55.948Z,2.12
2023-10-10T02:03:29.445Z,2.02
2023-10-10T02:06:01.758Z,2.02
2023-10-10T02:08:36.393Z,2.03
2023-10-10T02:11:10.108Z,2.19
2023-10-10T02:13:46.037Z,2.08
2023-10-10T02:16:24.939Z,2.11
2023-10-10T02:19:00.598Z,1.92
2023-10-10T02:21:44.512Z,1.74
2023-10-10T02:24:45.433Z,1.90
2023-10-10T02:27:21.549Z,1.60
2023-10-10T02:29:54.886Z,1.83
2023-10-10T02:32:30.918Z,1.66
2023-10-10T02:35:28.340Z,1.70
2023-10-10T02:38:05.179Z,1.60
2023-10-10T02:40:44.141Z,1.34
2023-10-10T02:43:34.886Z,1.57
2023-10-10T02:46:07.272Z,1.55
2023-10-10T02:48:43.541Z,1.38
2023-10-10T02:51:17.304Z,1.26
2023-10-10T02:53:49.264Z,1.45
2023-10-10T02:56:21.500Z,1.37
2023-10-10T02:58:55.767Z,1.28
2023-10-10T03:01:46.027Z,1.38
2023-10-10T03:04:19.094Z,1.27
2023-10-10T03:06:51.033Z,1.33
2023-10-10T03:09:43.080Z,1.33
2023-10-10T03:12:18.991Z,1.13
2023-10-10T03:14:54.685Z,1.11
2023-10-10T03:17:45.689Z,1.06
2023-10-10T03:20:35.894Z,1.16
2023-10-10T03:23:14.113Z,1.16
2023-10-10T03:25:56.051Z,1.19
2023-10-10T03:28:27.933Z,0.89
2023-10-10T03:31:24.380Z,1.11
2023-10-10T03:34:05.082Z,0.95
2023-10-10T03:36:46.535Z,1.01
2023-10-10T03:39:25.488Z,1.19
2023-10-10T03:42:15.748Z,1.09
2023-10-10T03:45:06.224Z,1.00
2023-10-10T03:47:56.647Z,0.97
2023-10-10T03:50:47.105Z,1.01
2023-10-10T03:53:37.601Z,1.04
2023-10-10T03:56:34.405Z,1.06
2023-10-10T03:59:25.237Z,1.00
2023-10-10T04:02:16.198Z,0.95
2023-10-10T04:05:23.785Z,0.90
2023-10-10T04:08:16.604Z,0.79
2023-10-10T04:11:07.067Z,0.77
2023-10-10T04:13:57.552Z,0.67
2023-10-10T04:16:47.935Z,0.75
2023-10-10T04:19:38.293Z,0.64
2023-10-10T04:22:28.665Z,0.74
2023-10-10T04:25:19.121Z,0.74
2023-10-10T04:28:09.433Z,0.69
2023-10-10T04:31:00.014Z,0.67
2023-10-10T04:33:50.095Z,0.57
2023-10-10T04:36:40.517Z,0.65
2023-10-10T04:39:30.896Z,0.61
2023-10-10T04:42:21.300Z,0.51
2023-10-10T04:45:11.614Z,0.46
2023-10-10T04:48:02.114Z,0.60
2023-10-10T04:50:52.565Z,0.58
2023-10-10T04:53:43.143Z,0.48
2023-10-10T04:56:33.650Z,0.45
2023-10-10T04:59:24.126Z,0.47
2023-10-10T05:02:14.415Z,0.65
2023-10-10T05:05:04.914Z,0.52
2023-10-10T05:07:55.324Z,0.45
2023-10-10T05:10:45.776Z,0.67
2023-10-10T05:13:36.123Z,0.55
2023-10-10T05:16:26.607Z,0.68
2023-10-10T05:19:16.773Z,0.68
2023-10-10T05:22:07.236Z,0.84
2023-10-10T05:24:44.604Z,0.86
2023-10-10T05:27:16.493Z,0.80
2023-10-10T05:29:51.340Z,0.94
2023-10-10T05:32:24.469Z,0.78
2023-10-10T05:34:58.557Z,0.93
2023-10-10T05:37:32.986Z,0.99
2023-10-10T05:40:08.322Z,1.03
2023-10-10T05:42:40.838Z,1.08
2023-10-10T05:45:15.202Z,1.08
2023-10-10T05:47:47.148Z,0.98
2023-10-10T05:50:20.096Z,1.18
2023-10-10T05:52:53.136Z,1.21
2023-10-10T05:55:24.939Z,1.45
2023-10-10T05:57:58.725Z,1.55
2023-10-10T06:00:37.861Z,1.60
2023-10-10T06:03:11.566Z,1.76
2023-10-10T06:05:47.312Z,1.85
2023-10-10T06:08:19.397Z,1.99
2023-10-10T06:10:51.212Z,2.14
2023-10-10T06:13:23.933Z,2.17
2023-10-10T06:15:55.824Z,2.21
2023-10-10T06:18:27.714Z,2.39
2023-10-10T06:23:38.872Z,2.60
2023-10-10T06:26:11.180Z,2.76
2023-10-10T06:28:49.553Z,2.67
2023-10-10T06:31:22.318Z,2.72
2023-10-10T06:33:59.314Z,2.70
2023-10-10T06:36:34.007Z,3.01
2023-10-10T06:39:06.250Z,3.19
2023-10-10T06:41:40.596Z,3.04
2023-10-10T06:44:15.448Z,3.39
2023-10-10T06:46:50.746Z,3.42
2023-10-10T06:49:23.769Z,3.63
2023-10-10T06:51:56.843Z,3.53
2023-10-10T06:54:35.899Z,3.86
2023-10-10T06:57:10.479Z,4.04
2023-10-10T06:59:42.370Z,4.08
2023-10-10T07:02:20.438Z,4.27
2023-10-10T07:04:55.101Z,4.34
2023-10-10T07:07:27.868Z,4.47
2023-10-10T07:10:00.240Z,4.42
2023-10-10T07:12:33.210Z,4.62
2023-10-10T07:15:07.994Z,4.81
2023-10-10T07:17:40.610Z,4.93
2023-10-10T07:20:12.515Z,4.93
2023-10-10T07:22:46.167Z,5.26
2023-10-10T07:25:33.638Z,5.34
2023-10-10T07:28:06.583Z,5.45
2023-10-10T07:30:44.103Z,5.55
2023-10-10T07:33:15.883Z,5.68
2023-10-10T07:35:54.969Z,5.74
2023-10-10T07:38:30.413Z,5.80
2023-10-10T07:41:06.215Z,5.95
2023-10-10T07:43:39.352Z,6.16
2023-10-10T07:46:23.984Z,6.07
2023-10-10T07:48:55.825Z,6.39
2023-10-10T07:51:30.234Z,6.38
2023-10-10T07:54:14.368Z,6.40
2023-10-10T07:56:46.989Z,6.78
2023-10-10T07:59:19.012Z,7.04
2023-10-10T08:01:55.345Z,7.11
2023-10-10T08:04:27.185Z,7.04
2023-10-10T08:06:58.957Z,7.29
2023-10-10T08:09:31.317Z,7.52
2023-10-10T08:12:06.243Z,7.57
2023-10-10T08:14:41.105Z,7.74
2023-10-10T08:17:27.557Z,7.91
2023-10-10T08:20:19.406Z,7.92
2023-10-10T08:22:51.153Z,8.07
2023-10-10T08:25:24.482Z,8.30
2023-10-10T08:27:57.205Z,8.34
2023-10-10T08:30:29.076Z,8.38
2023-10-10T08:33:01.685Z,8.59
2023-10-10T08:35:40.559Z,8.72
2023-10-10T08:38:14.735Z,8.92
2023-10-10T08:40:59.493Z,8.77
2023-10-10T08:43:33.101Z,8.96
2023-10-10T08:46:05.795Z,9.25
2023-10-10T08:48:38.788Z,9.39
2023-10-10T08:51:10.752Z,9.45
2023-10-10T08:53:42.578Z,9.21
2023-10-10T08:56:16.588Z,9.48
2023-10-10T08:58:48.430Z,9.47
2023-10-10T09:01:20.353Z,9.57
2023-10-10T09:03:52.225Z,9.73
2023-10-10T09:06:24.031Z,9.75
2023-10-10T09:08:57.066Z,9.78
2023-10-10T09:11:31.937Z,9.89
2023-10-10T09:14:11.338Z,9.96
2023-10-10T09:16:43.385Z,10.24
2023-10-10T09:19:16.180Z,9.90
2023-10-10T09:21:57.677Z,9.79
2023-10-10T09:24:38.913Z,9.91
2023-10-10T09:27:29.750Z,9.88
2023-10-10T09:30:10.068Z,10.03
2023-10-10T09:32:44.197Z,10.36
2023-10-10T09:35:16.123Z,10.28
2023-10-10T09:37:48.345Z,10.14
2023-10-10T09:40:20.854Z,10.12
2023-10-10T09:43:02.701Z,10.15
2023-10-10T09:45:54.432Z,10.28
2023-10-10T09:48:55.613Z,10.76
2023-10-10T09:51:48.444Z,10.77
2023-10-10T09:54:26.859Z,10.94
2023-10-10T09:57:00.322Z,10.84
2023-10-10T09:59:33.912Z,10.73
2023-10-10T10:02:06.644Z,10.65
2023-10-10T10:04:43.477Z,10.80
2023-10-10T10:07:29.026Z,11.38
2023-10-10T10:10:49.968Z,11.73
2023-10-10T10:13:57.889Z,11.80
2023-10-10T10:16:47.929Z,11.92
2023-10-10T10:19:24.138Z,11.86
2023-10-10T10:22:09.720Z,12.00
2023-10-10T10:24:47.375Z,12.21
2023-10-10T10:27:36.661Z,11.89
2023-10-10T10:30:20.836Z,11.65
2023-10-10T10:32:56.989Z,11.43
2023-10-10T10:35:58.508Z,11.25
2023-10-10T10:38:33.205Z,11.44
2023-10-10T10:41:18.535Z,11.07
2023-10-10T10:43:53.335Z,11.36
2023-10-10T10:46:41.192Z,11.56
2023-10-10T10:49:16.609Z,11.39
2023-10-10T10:51:48.894Z,11.49
2023-10-10T10:54:38.742Z,11.51
2023-10-10T10:57:43.126Z,11.35
2023-10-10T11:00:41.911Z,11.73
2023-10-10T11:03:14.736Z,11.72
2023-10-10T11:05:46.748Z,11.61
2023-10-10T11:08:50.620Z,11.80
2023-10-10T11:11:37.160Z,11.70
2023-10-10T11:14:20.561Z,11.62
2023-10-10T11:16:58.353Z,11.44
2023-10-10T11:19:31.523Z,11.63
2023-10-10T11:22:06.891Z,11.40
2023-10-10T11:24:38.920Z,11.78
2023-10-10T11:27:13.272Z,11.67
2023-10-10T11:29:51.599Z,11.62
2023-10-10T11:32:30.663Z,11.59
2023-10-10T11:35:17.602Z,11.64
2023-10-10T11:37:50.367Z,11.78
2023-10-10T11:40:42.404Z,11.75
2023-10-10T11:43:14.474Z,11.75
2023-10-10T11:45:52.967Z,11.85
2023-10-10T11:48:27.771Z,11.80
2023-10-10T11:51:00.903Z,11.81
2023-10-10T11:53:38.181Z,11.77
2023-10-10T11:56:15.220Z,11.64
2023-10-10T11:58:50.875Z,11.56
2023-10-10T12:01:42.667Z,11.77
2023-10-10T12:04:40.345Z,11.89
2023-10-10T12:07:15.279Z,11.76
2023-10-10T12:09:48.923Z,11.69
2023-10-10T12:12:22.873Z,11.71
2023-10-10T12:14:55.092Z,11.79
2023-10-10T12:17:29.600Z,11.96
2023-10-10T12:20:01.440Z,11.96
2023-10-10T12:22:33.247Z,11.88
2023-10-10T12:25:06.292Z,11.72
2023-10-10T12:27:38.064Z,11.95
2023-10-10T12:30:14.387Z,12.10
2023-10-10T12:32:50.866Z,12.30
2023-10-10T12:35:25.750Z,12.44
2023-10-10T12:38:02.638Z,12.51
2023-10-10T12:40:34.927Z,12.15
2023-10-10T12:43:09.226Z,12.09
2023-10-10T12:45:41.009Z,12.01
2023-10-10T12:48:21.814Z,12.06
2023-10-10T12:50:53.988Z,11.95
2023-10-10T12:53:32.048Z,12.01
2023-10-10T12:56:03.877Z,11.97
2023-10-10T12:58:35.667Z,12.22
2023-10-10T13:01:07.444Z,11.82
2023-10-10T13:03:39.826Z,11.97
2023-10-10T13:06:11.747Z,11.85
2023-10-10T13:09:04.386Z,12.07
2023-10-10T13:11:45.529Z,12.14
2023-10-10T13:14:20.585Z,11.90
2023-10-10T13:16:52.863Z,11.93
2023-10-10T13:19:24.820Z,11.80
2023-10-10T13:21:56.620Z,11.78
2023-10-10T13:24:28.420Z,11.84
2023-10-10T13:27:00.239Z,11.91
2023-10-10T13:29:32.088Z,11.84
2023-10-10T13:32:06.158Z,11.75
2023-10-10T13:34:39.111Z,11.96
2023-10-10T13:37:10.976Z,11.86
2023-10-10T13:39:49.242Z,11.95
2023-10-10T13:42:22.095Z,12.12
2023-10-10T13:45:02.702Z,12.37
2023-10-10T13:47:34.602Z,12.09
2023-10-10T13:50:26.829Z,12.14
2023-10-10T13:53:00.801Z,12.13
2023-10-10T13:55:35.566Z,11.95
2023-10-10T13:58:13.521Z,11.91
2023-10-10T14:00:57.120Z,11.96
2023-10-10T14:03:36.853Z,11.86
2023-10-10T14:06:13.799Z,11.74
2023-10-10T14:08:45.777Z,11.89
2023-10-10T14:11:25.029Z,11.84
2023-10-10T14:13:57.088Z,11.71
2023-10-10T14:16:31.444Z,11.64
2023-10-10T14:19:03.288Z,11.40
2023-10-10T14:21:39.996Z,11.40
2023-10-10T14:24:15.366Z,11.21
2023-10-10T14:26:50.210Z,11.10
2023-10-10T14:29:22.251Z,11.16
2023-10-10T14:32:00.245Z,11.22
2023-10-10T14:34:36.488Z,11.15
2023-10-10T14:37:20.464Z,11.22
2023-10-10T14:40:01.093Z,11.14
2023-10-10T14:42:32.856Z,11.16
2023-10-10T14:45:08.020Z,11.10
2023-10-10T14:47:44.181Z,10.94
2023-10-10T14:50:16.010Z,10.99
2023-10-10T14:52:51.105Z,10.96
2023-10-10T14:55:25.808Z,10.74
2023-10-10T14:57:57.747Z,10.87
2023-10-10T15:00:30.200Z,10.75
2023-10-10T15:03:02.607Z,10.74
2023-10-10T15:05:34.504Z,10.74
2023-10-10T15:08:06.562Z,10.65
2023-10-10T15:10:42.308Z,10.67
2023-10-10T15:13:16.810Z,10.59
2023-10-10T15:15:49.659Z,10.52
2023-10-10T15:18:21.567Z,10.46
2023-10-10T15:20:53.980Z,10.38
2023-10-10T15:23:26.498Z,10.32
2023-10-10T15:26:13.084Z,10.21
2023-10-10T15:28:45.631Z,10.24
2023-10-10T15:31:17.428Z,10.20
2023-10-10T15:33:49.252Z,10.02
2023-10-10T15:36:21.124Z,10.02
2023-10-10T15:38:52.887Z,9.93
2023-10-10T15:41:26.680Z,9.79
2023-10-10T15:44:04.092Z,9.78
2023-10-10T15:46:38.857Z,9.75
2023-10-10T15:49:33.225Z,9.67
2023-10-10T15:52:06.281Z,9.43
2023-10-10T15:54:38.512Z,9.52
2023-10-10T15:57:10.972Z,9.25
2023-10-10T15:59:43.775Z,9.19
2023-10-10T16:02:15.916Z,9.25
2023-10-10T16:04:47.792Z,9.19
2023-10-10T16:07:19.660Z,8.73
2023-10-10T16:09:53.757Z,9.06
2023-10-10T16:12:25.586Z,8.91
2023-10-10T16:14:57.447Z,9.02
2023-10-10T16:17:30.154Z,8.77
2023-10-10T16:20:06.684Z,8.86
2023-10-10T16:22:40.992Z,8.69
2023-10-10T16:25:14.806Z,8.72
2023-10-10T16:27:46.563Z,8.51
2023-10-10T16:30:18.484Z,8.45
2023-10-10T16:32:51.005Z,8.69
2023-10-10T16:35:22.969Z,8.41
2023-10-10T16:37:55.123Z,8.54
2023-10-10T16:40:30.879Z,8.45
2023-10-10T16:43:03.583Z,8.52
2023-10-10T16:45:35.382Z,8.25
2023-10-10T16:48:10.096Z,8.51
2023-10-10T16:50:43.301Z,8.09
2023-10-10T16:53:15.184Z,8.45
2023-10-10T16:55:46.968Z,8.38
2023-10-10T16:58:18.976Z,8.30
2023-10-10T17:00:51.188Z,8.26
2023-10-10T17:03:24.010Z,8.27
2023-10-10T17:05:58.648Z,8.17
2023-10-10T17:08:33.534Z,8.18
2023-10-10T17:11:15.985Z,8.17
2023-10-10T17:13:48.412Z,8.16
2023-10-10T17:16:30.295Z,8.09
2023-10-10T17:19:16.333Z,7.83
2023-10-10T17:21:48.984Z,7.88
2023-10-10T17:24:21.385Z,7.81
2023-10-10T17:26:55.375Z,7.53
2023-10-10T17:29:28.071Z,7.60
2023-10-10T17:32:01.240Z,7.68
2023-10-10T17:34:34.897Z,7.51
2023-10-10T17:37:10.194Z,7.60
2023-10-10T17:39:41.994Z,7.60
2023-10-10T17:42:13.751Z,7.60
2023-10-10T17:44:46.050Z,7.48
2023-10-10T17:47:17.888Z,7.66
2023-10-10T17:49:49.694Z,7.59
2023-10-10T17:52:22.800Z,7.56
2023-10-10T17:54:54.787Z,7.49
2023-10-10T17:57:26.572Z,7.38
2023-10-10T17:59:58.507Z,7.48
2023-10-10T18:02:33.546Z,7.42
2023-10-10T18:05:06.934Z,7.41
2023-10-10T18:07:39.718Z,7.33
2023-10-10T18:10:12.805Z,7.24
2023-10-10T18:12:44.978Z,7.35
2023-10-10T18:15:20.279Z,7.37
2023-10-10T18:17:57.031Z,7.15
2023-10-10T18:20:31.169Z,7.25
2023-10-10T18:23:03.300Z,7.10
2023-10-10T18:25:39.269Z,7.17
2023-10-10T18:28:12.364Z,6.95
2023-10-10T18:30:46.927Z,7.25
2023-10-10T18:33:18.820Z,7.09
2023-10-10T18:35:50.742Z,6.99
2023-10-10T18:38:22.560Z,7.00
2023-10-10T18:40:56.118Z,6.95
2023-10-10T18:43:27.979Z,7.01
2023-10-10T18:46:01.590Z,6.96
2023-10-10T18:48:38.420Z,6.77
2023-10-10T18:51:14.762Z,6.85
2023-10-10T18:53:48.682Z,6.79
2023-10-10T18:56:20.550Z,6.75
2023-10-10T18:58:52.383Z,6.66
2023-10-10T19:01:24.368Z,6.61
2023-10-10T19:03:56.223Z,6.67
2023-10-10T19:06:28.094Z,6.63
2023-10-10T19:09:01.636Z,6.70
2023-10-10T19:11:33.588Z,6.66
2023-10-10T19:14:05.431Z,6.67
2023-10-10T19:16:40.363Z,6.64
2023-10-10T19:19:12.157Z,6.61
2023-10-10T19:21:46.498Z,6.63
2023-10-10T19:24:21.626Z,6.46
2023-10-10T19:26:54.535Z,6.53
2023-10-10T19:29:30.153Z,6.53
2023-10-10T19:32:02.011Z,6.44
2023-10-10T19:34:34.491Z,6.55
2023-10-10T19:37:06.293Z,6.56
2023-10-10T19:39:38.055Z,6.39
2023-10-10T19:42:09.852Z,6.52
2023-10-10T19:44:41.682Z,6.33
2023-10-10T19:47:13.487Z,6.42
2023-10-10T19:49:45.299Z,6.35
2023-10-10T19:52:17.072Z,6.43
2023-10-10T19:54:48.857Z,6.24
2023-10-10T19:57:20.642Z,6.42
2023-10-10T19:59:52.433Z,6.43
2023-10-10T20:02:24.375Z,6.37
2023-10-10T20:04:56.988Z,6.35
2023-10-10T20:07:28.983Z,6.32
2023-10-10T20:10:00.741Z,6.32
2023-10-10T20:12:32.514Z,6.36
2023-10-10T20:15:04.730Z,6.38
2023-10-10T20:17:37.723Z,6.24
2023-10-10T20:20:10.824Z,6.45
2023-10-10T20:22:45.682Z,6.27
2023-10-10T20:25:20.264Z,6.29
2023-10-10T20:27:52.133Z,6.38
2023-10-10T20:30:27.652Z,6.33
2023-10-10T20:33:02.700Z,6.19
2023-10-10T20:35:36.293Z,6.22
2023-10-10T20:38:08.125Z,6.24
2023-10-10T20:40:44.540Z,6.24
2023-10-10T20:43:16.541Z,6.12
2023-10-10T20:45:48.394Z,6.12
2023-10-10T20:48:23.355Z,6.22
2023-10-10T20:50:55.379Z,6.08
2023-10-10T20:53:29.339Z,5.99
2023-10-10T20:56:03.350Z,5.86
2023-10-10T20:58:35.989Z,6.11
2023-10-10T21:01:13.326Z,5.99
2023-10-10T21:03:45.410Z,5.96
2023-10-10T21:06:17.233Z,6.10
2023-10-10T21:08:50.696Z,6.02
2023-10-10T21:11:23.136Z,5.93
2023-10-10T21:13:54.953Z,6.11
2023-10-10T21:16:26.850Z,6.23
2023-10-10T21:18:59.089Z,6.17
2023-10-10T21:21:30.943Z,6.40
2023-10-10T21:24:02.745Z,6.45
2023-10-10T21:26:34.678Z,6.43
2023-10-10T21:29:06.449Z,6.49
2023-10-10T21:31:38.205Z,6.48
2023-10-10T21:34:11.799Z,6.55
2023-10-10T21:36:43.606Z,6.77
2023-10-10T21:39:19.964Z,6.81
2023-10-10T21:41:51.818Z,6.76
2023-10-10T21:44:23.644Z,6.84
2023-10-10T21:46:55.431Z,6.90
2023-10-10T21:49:30.183Z,6.94
2023-10-10T21:52:02.419Z,6.89
2023-10-10T21:54:34.215Z,6.95
2023-10-10T21:57:05.996Z,7.08
2023-10-10T21:59:39.123Z,6.86
2023-10-10T22:02:11.096Z,7.13
2023-10-10T22:04:44.274Z,7.09
2023-10-10T22:15:38.785Z,7.09
2023-10-10T22:18:13.248Z,7.15
2023-10-10T22:20:45.478Z,7.15
2023-10-10T22:23:17.389Z,7.15
2023-10-10T22:25:49.546Z,7.01
2023-10-10T22:28:21.479Z,7.04
2023-10-10T22:30:53.438Z,7.10
2023-10-10T22:33:25.395Z,7.03
2023-10-10T22:35:57.557Z,7.00
2023-10-10T22:38:29.503Z,7.07
2023-10-10T22:41:01.409Z,6.93
2023-10-10T22:43:33.323Z,6.84
2023-10-10T22:46:05.302Z,6.88
2023-10-10T22:48:37.806Z,6.75
2023-10-10T22:51:11.186Z,6.78
2023-10-10T22:53:43.716Z,6.68
2023-10-10T22:56:19.588Z,6.53
2023-10-10T22:58:51.557Z,6.51
2023-10-10T23:01:23.762Z,6.60
2023-10-10T23:03:56.791Z,6.42
2023-10-10T23:06:29.954Z,6.67
2023-10-10T23:09:08.963Z,6.77
2023-10-10T23:11:41.064Z,6.70
2023-10-10T23:14:14.279Z,6.71
2023-10-10T23:16:46.371Z,6.85
2023-10-10T23:19:19.042Z,6.75
2023-10-10T23:21:50.956Z,6.82
2023-10-10T23:24:22.862Z,6.85
2023-10-10T23:26:55.956Z,7.03
2023-10-10T23:29:27.912Z,7.06
2023-10-10T23:32:00.587Z,6.98
2023-10-10T23:34:32.600Z,7.06
2023-10-10T23:37:05.123Z,7.15
2023-10-10T23:39:37.059Z,7.08
2023-10-10T23:42:10.810Z,7.12
2023-10-10T23:44:42.795Z,6.92
2023-10-10T23:47:14.738Z,6.95
2023-10-10T23:49:48.480Z,7.08
2023-10-10T23:52:22.539Z,6.96
2023-10-10T23:54:54.463Z,7.11
2023-10-10T23:57:26.391Z,7.14
2023-10-10T23:59:58.454Z,7.19
